sensor_id;sensor_type;location;lat;lon;timestamp;P1;durP1;ratioP1;P2;durP2;ratioP2
43646;SDS011;56152;49.996;18.980;2024-02-26T00:01:33;85.17;;;42.50;;
43646;SDS011;56152;49.996;18.980;2024-02-26T00:06:35;139.87;;;65.60;;
43646;SDS011;56152;49.996;18.980;2024-02-26T00:11:41;122.77;;;56.63;;
43646;SDS011;56152;49.996;18.980;2024-02-26T00:16:45;157.85;;;55.03;;
43646;SDS011;56152;49.996;18.980;2024-02-26T00:21:47;147.35;;;52.70;;
43646;SDS011;56152;49.996;18.980;2024-02-26T00:26:49;148.37;;;51.43;;
43646;SDS011;56152;49.996;18.980;2024-02-26T00:32:07;139.50;;;52.53;;
43646;SDS011;56152;49.996;18.980;2024-02-26T00:37:11;136.73;;;51.17;;
43646;SDS011;56152;49.996;18.980;2024-02-26T00:42:13;125.33;;;50.47;;
43646;SDS011;56152;49.996;18.980;2024-02-26T00:47:17;111.00;;;47.85;;
43646;SDS011;56152;49.996;18.980;2024-02-26T00:52:19;114.70;;;48.80;;
43646;SDS011;56152;49.996;18.980;2024-02-26T00:57:20;109.05;;;51.83;;
43646;SDS011;56152;49.996;18.980;2024-02-26T01:02:24;111.73;;;49.03;;
43646;SDS011;56152;49.996;18.980;2024-02-26T01:07:26;105.40;;;48.63;;
43646;SDS011;56152;49.996;18.980;2024-02-26T01:12:28;95.30;;;43.83;;
43646;SDS011;56152;49.996;18.980;2024-02-26T01:17:32;99.07;;;44.07;;
43646;SDS011;56152;49.996;18.980;2024-02-26T01:22:34;102.93;;;55.67;;
43646;SDS011;56152;49.996;18.980;2024-02-26T01:27:42;104.50;;;54.10;;
43646;SDS011;56152;49.996;18.980;2024-02-26T01:32:45;99.23;;;49.63;;
43646;SDS011;56152;49.996;18.980;2024-02-26T01:37:47;101.33;;;53.63;;
43646;SDS011;56152;49.996;18.980;2024-02-26T01:42:50;205.70;;;72.93;;
43646;SDS011;56152;49.996;18.980;2024-02-26T01:47:57;176.73;;;65.57;;
43646;SDS011;56152;49.996;18.980;2024-02-26T01:52:59;117.40;;;53.93;;
43646;SDS011;56152;49.996;18.980;2024-02-26T01:58:02;348.63;;;95.03;;
43646;SDS011;56152;49.996;18.980;2024-02-26T02:03:07;181.33;;;62.90;;
43646;SDS011;56152;49.996;18.980;2024-02-26T02:08:19;137.97;;;58.33;;
43646;SDS011;56152;49.996;18.980;2024-02-26T02:18:30;105.37;;;51.50;;
43646;SDS011;56152;49.996;18.980;2024-02-26T02:23:36;120.20;;;59.33;;
43646;SDS011;56152;49.996;18.980;2024-02-26T02:28:46;110.60;;;54.23;;
43646;SDS011;56152;49.996;18.980;2024-02-26T02:33:50;115.23;;;53.43;;
43646;SDS011;56152;49.996;18.980;2024-02-26T02:38:55;135.07;;;63.53;;
43646;SDS011;56152;49.996;18.980;2024-02-26T02:43:57;133.27;;;66.27;;
43646;SDS011;56152;49.996;18.980;2024-02-26T02:49:07;118.03;;;60.43;;
43646;SDS011;56152;49.996;18.980;2024-02-26T02:54:12;124.43;;;64.57;;
43646;SDS011;56152;49.996;18.980;2024-02-26T02:59:17;104.03;;;52.63;;
43646;SDS011;56152;49.996;18.980;2024-02-26T03:04:19;81.97;;;44.87;;
43646;SDS011;56152;49.996;18.980;2024-02-26T03:09:22;71.10;;;35.03;;
43646;SDS011;56152;49.996;18.980;2024-02-26T03:14:24;63.50;;;32.17;;
43646;SDS011;56152;49.996;18.980;2024-02-26T03:19:26;76.77;;;41.37;;
43646;SDS011;56152;49.996;18.980;2024-02-26T03:24:30;79.60;;;42.20;;
43646;SDS011;56152;49.996;18.980;2024-02-26T03:29:32;79.13;;;40.70;;
43646;SDS011;56152;49.996;18.980;2024-02-26T03:34:34;79.30;;;37.70;;
43646;SDS011;56152;49.996;18.980;2024-02-26T03:39:43;74.13;;;35.47;;
43646;SDS011;56152;49.996;18.980;2024-02-26T03:44:46;58.10;;;30.07;;
43646;SDS011;56152;49.996;18.980;2024-02-26T03:49:48;63.33;;;29.83;;
43646;SDS011;56152;49.996;18.980;2024-02-26T03:54:52;66.53;;;35.00;;
43646;SDS011;56152;49.996;18.980;2024-02-26T03:59:53;62.33;;;36.83;;
43646;SDS011;56152;49.996;18.980;2024-02-26T04:04:58;64.53;;;37.30;;
43646;SDS011;56152;49.996;18.980;2024-02-26T04:10:07;62.10;;;32.27;;
43646;SDS011;56152;49.996;18.980;2024-02-26T04:15:11;67.53;;;34.83;;
43646;SDS011;56152;49.996;18.980;2024-02-26T04:20:14;69.73;;;34.07;;
43646;SDS011;56152;49.996;18.980;2024-02-26T04:25:18;69.03;;;37.33;;
43646;SDS011;56152;49.996;18.980;2024-02-26T04:30:20;74.73;;;37.73;;
43646;SDS011;56152;49.996;18.980;2024-02-26T04:35:22;79.93;;;39.30;;
43646;SDS011;56152;49.996;18.980;2024-02-26T04:40:26;64.47;;;33.97;;
43646;SDS011;56152;49.996;18.980;2024-02-26T04:45:28;66.70;;;33.30;;
43646;SDS011;56152;49.996;18.980;2024-02-26T04:50:30;65.83;;;33.57;;
43646;SDS011;56152;49.996;18.980;2024-02-26T04:55:33;122.27;;;56.90;;
43646;SDS011;56152;49.996;18.980;2024-02-26T05:00:35;113.73;;;53.73;;
43646;SDS011;56152;49.996;18.980;2024-02-26T05:05:37;85.17;;;44.80;;
43646;SDS011;56152;49.996;18.980;2024-02-26T05:10:41;78.63;;;45.40;;
43646;SDS011;56152;49.996;18.980;2024-02-26T05:15:46;78.20;;;44.00;;
43646;SDS011;56152;49.996;18.980;2024-02-26T05:20:49;85.33;;;49.97;;
43646;SDS011;56152;49.996;18.980;2024-02-26T05:25:53;94.57;;;53.87;;
43646;SDS011;56152;49.996;18.980;2024-02-26T05:30:54;71.27;;;43.43;;
43646;SDS011;56152;49.996;18.980;2024-02-26T05:35:59;66.23;;;36.10;;
43646;SDS011;56152;49.996;18.980;2024-02-26T05:41:06;78.60;;;42.50;;
43646;SDS011;56152;49.996;18.980;2024-02-26T05:46:09;112.40;;;60.30;;
43646;SDS011;56152;49.996;18.980;2024-02-26T05:51:12;130.67;;;67.30;;
43646;SDS011;56152;49.996;18.980;2024-02-26T05:56:15;157.77;;;65.07;;
43646;SDS011;56152;49.996;18.980;2024-02-26T06:01:21;111.77;;;53.70;;
43646;SDS011;56152;49.996;18.980;2024-02-26T06:06:24;92.77;;;48.40;;
43646;SDS011;56152;49.996;18.980;2024-02-26T06:11:28;119.57;;;60.70;;
43646;SDS011;56152;49.996;18.980;2024-02-26T06:16:30;103.43;;;54.57;;
43646;SDS011;56152;49.996;18.980;2024-02-26T06:21:36;106.53;;;57.33;;
43646;SDS011;56152;49.996;18.980;2024-02-26T06:26:42;109.30;;;59.17;;
43646;SDS011;56152;49.996;18.980;2024-02-26T06:31:46;97.00;;;47.43;;
43646;SDS011;56152;49.996;18.980;2024-02-26T06:36:50;83.83;;;47.77;;
43646;SDS011;56152;49.996;18.980;2024-02-26T06:41:55;89.77;;;50.33;;
43646;SDS011;56152;49.996;18.980;2024-02-26T06:47:00;71.07;;;39.80;;
43646;SDS011;56152;49.996;18.980;2024-02-26T06:52:03;65.73;;;37.90;;
43646;SDS011;56152;49.996;18.980;2024-02-26T06:57:08;67.47;;;39.27;;
43646;SDS011;56152;49.996;18.980;2024-02-26T07:02:13;75.38;;;44.17;;
43646;SDS011;56152;49.996;18.980;2024-02-26T07:07:16;95.30;;;51.75;;
43646;SDS011;56152;49.996;18.980;2024-02-26T07:12:21;79.10;;;43.47;;
43646;SDS011;56152;49.996;18.980;2024-02-26T07:17:25;64.07;;;39.58;;
43646;SDS011;56152;49.996;18.980;2024-02-26T07:22:27;59.40;;;33.75;;
43646;SDS011;56152;49.996;18.980;2024-02-26T07:27:31;62.95;;;35.22;;
43646;SDS011;56152;49.996;18.980;2024-02-26T07:32:34;51.75;;;29.33;;
43646;SDS011;56152;49.996;18.980;2024-02-26T07:37:36;52.75;;;27.02;;
43646;SDS011;56152;49.996;18.980;2024-02-26T07:42:39;67.75;;;36.63;;
43646;SDS011;56152;49.996;18.980;2024-02-26T07:47:41;62.97;;;30.50;;
43646;SDS011;56152;49.996;18.980;2024-02-26T07:52:43;43.65;;;23.80;;
43646;SDS011;56152;49.996;18.980;2024-02-26T07:57:48;41.53;;;23.10;;
43646;SDS011;56152;49.996;18.980;2024-02-26T08:02:50;45.63;;;23.73;;
43646;SDS011;56152;49.996;18.980;2024-02-26T08:07:51;38.42;;;20.13;;
43646;SDS011;56152;49.996;18.980;2024-02-26T08:12:56;70.82;;;40.83;;
43646;SDS011;56152;49.996;18.980;2024-02-26T08:23:08;39.03;;;20.92;;
43646;SDS011;56152;49.996;18.980;2024-02-26T08:28:16;45.10;;;20.23;;
43646;SDS011;56152;49.996;18.980;2024-02-26T08:33:18;38.08;;;18.13;;
43646;SDS011;56152;49.996;18.980;2024-02-26T08:38:20;32.38;;;17.05;;
43646;SDS011;56152;49.996;18.980;2024-02-26T08:43:24;37.95;;;17.10;;
43646;SDS011;56152;49.996;18.980;2024-02-26T08:48:26;37.17;;;16.38;;
43646;SDS011;56152;49.996;18.980;2024-02-26T08:53:28;46.15;;;19.98;;
43646;SDS011;56152;49.996;18.980;2024-02-26T08:58:35;42.85;;;19.25;;
43646;SDS011;56152;49.996;18.980;2024-02-26T09:03:39;29.90;;;15.52;;
43646;SDS011;56152;49.996;18.980;2024-02-26T09:08:41;22.85;;;13.80;;
43646;SDS011;56152;49.996;18.980;2024-02-26T09:13:50;24.60;;;12.20;;
43646;SDS011;56152;49.996;18.980;2024-02-26T09:18:52;16.90;;;10.25;;
43646;SDS011;56152;49.996;18.980;2024-02-26T09:23:54;19.85;;;9.48;;
43646;SDS011;56152;49.996;18.980;2024-02-26T09:28:57;15.60;;;9.13;;
43646;SDS011;56152;49.996;18.980;2024-02-26T09:34:02;16.48;;;8.82;;
43646;SDS011;56152;49.996;18.980;2024-02-26T09:39:04;13.15;;;7.45;;
43646;SDS011;56152;49.996;18.980;2024-02-26T09:44:13;12.95;;;7.07;;
43646;SDS011;56152;49.996;18.980;2024-02-26T09:49:20;11.40;;;6.90;;
43646;SDS011;56152;49.996;18.980;2024-02-26T09:54:25;13.02;;;4.90;;
43646;SDS011;56152;49.996;18.980;2024-02-26T09:59:35;5.32;;;4.10;;
43646;SDS011;56152;49.996;18.980;2024-02-26T10:04:41;6.57;;;3.97;;
43646;SDS011;56152;49.996;18.980;2024-02-26T10:09:46;5.75;;;4.13;;
43646;SDS011;56152;49.996;18.980;2024-02-26T10:14:50;9.60;;;4.45;;
43646;SDS011;56152;49.996;18.980;2024-02-26T10:19:51;7.07;;;4.40;;
43646;SDS011;56152;49.996;18.980;2024-02-26T10:24:56;8.27;;;4.60;;
43646;SDS011;56152;49.996;18.980;2024-02-26T10:30:04;12.32;;;5.03;;
43646;SDS011;56152;49.996;18.980;2024-02-26T10:35:16;11.75;;;5.40;;
43646;SDS011;56152;49.996;18.980;2024-02-26T10:40:20;9.68;;;5.15;;
43646;SDS011;56152;49.996;18.980;2024-02-26T10:45:24;10.60;;;5.20;;
43646;SDS011;56152;49.996;18.980;2024-02-26T10:50:26;8.00;;;5.07;;
43646;SDS011;56152;49.996;18.980;2024-02-26T10:55:28;7.93;;;4.32;;
43646;SDS011;56152;49.996;18.980;2024-02-26T11:00:32;9.00;;;4.60;;
43646;SDS011;56152;49.996;18.980;2024-02-26T11:05:34;13.32;;;8.13;;
43646;SDS011;56152;49.996;18.980;2024-02-26T11:10:37;12.15;;;9.23;;
43646;SDS011;56152;49.996;18.980;2024-02-26T11:15:46;12.82;;;6.90;;
43646;SDS011;56152;49.996;18.980;2024-02-26T11:20:49;11.40;;;6.68;;
43646;SDS011;56152;49.996;18.980;2024-02-26T11:25:55;35.67;;;14.02;;
43646;SDS011;56152;49.996;18.980;2024-02-26T11:31:03;32.90;;;14.55;;
43646;SDS011;56152;49.996;18.980;2024-02-26T11:36:07;40.33;;;18.42;;
43646;SDS011;56152;49.996;18.980;2024-02-26T11:41:10;60.97;;;26.67;;
43646;SDS011;56152;49.996;18.980;2024-02-26T11:46:26;19.75;;;9.88;;
43646;SDS011;56152;49.996;18.980;2024-02-26T11:51:32;17.20;;;10.05;;
43646;SDS011;56152;49.996;18.980;2024-02-26T11:56:35;12.95;;;7.15;;
43646;SDS011;56152;49.996;18.980;2024-02-26T12:01:44;57.35;;;18.63;;
43646;SDS011;56152;49.996;18.980;2024-02-26T12:06:50;20.38;;;10.70;;
43646;SDS011;56152;49.996;18.980;2024-02-26T12:11:53;35.25;;;17.60;;
43646;SDS011;56152;49.996;18.980;2024-02-26T12:17:06;21.67;;;12.43;;
43646;SDS011;56152;49.996;18.980;2024-02-26T12:22:09;37.40;;;23.02;;
43646;SDS011;56152;49.996;18.980;2024-02-26T12:27:14;31.77;;;18.02;;
43646;SDS011;56152;49.996;18.980;2024-02-26T12:32:18;59.70;;;35.22;;
43646;SDS011;56152;49.996;18.980;2024-02-26T12:37:20;74.57;;;40.15;;
43646;SDS011;56152;49.996;18.980;2024-02-26T12:42:24;42.45;;;22.40;;
43646;SDS011;56152;49.996;18.980;2024-02-26T12:47:28;40.42;;;21.65;;
43646;SDS011;56152;49.996;18.980;2024-02-26T12:52:30;37.20;;;17.55;;
43646;SDS011;56152;49.996;18.980;2024-02-26T12:57:32;24.83;;;12.32;;
43646;SDS011;56152;49.996;18.980;2024-02-26T13:02:37;25.20;;;11.00;;
43646;SDS011;56152;49.996;18.980;2024-02-26T13:07:45;20.98;;;9.68;;
43646;SDS011;56152;49.996;18.980;2024-02-26T13:12:48;20.13;;;10.77;;
43646;SDS011;56152;49.996;18.980;2024-02-26T13:17:53;22.95;;;11.50;;
43646;SDS011;56152;49.996;18.980;2024-02-26T13:23:02;16.70;;;9.27;;
43646;SDS011;56152;49.996;18.980;2024-02-26T13:28:06;27.08;;;12.75;;
43646;SDS011;56152;49.996;18.980;2024-02-26T13:33:11;35.75;;;19.00;;
43646;SDS011;56152;49.996;18.980;2024-02-26T13:38:13;35.38;;;14.10;;
43646;SDS011;56152;49.996;18.980;2024-02-26T13:43:15;30.17;;;16.92;;
43646;SDS011;56152;49.996;18.980;2024-02-26T13:48:20;63.28;;;34.88;;
43646;SDS011;56152;49.996;18.980;2024-02-26T13:53:22;31.90;;;19.58;;
43646;SDS011;56152;49.996;18.980;2024-02-26T13:58:24;61.78;;;33.13;;
43646;SDS011;56152;49.996;18.980;2024-02-26T14:03:29;88.20;;;43.97;;
43646;SDS011;56152;49.996;18.980;2024-02-26T14:08:30;109.70;;;58.35;;
43646;SDS011;56152;49.996;18.980;2024-02-26T14:13:34;82.18;;;42.75;;
43646;SDS011;56152;49.996;18.980;2024-02-26T14:18:38;50.15;;;25.30;;
43646;SDS011;56152;49.996;18.980;2024-02-26T14:23:40;34.63;;;18.08;;
43646;SDS011;56152;49.996;18.980;2024-02-26T14:28:46;38.85;;;17.15;;
43646;SDS011;56152;49.996;18.980;2024-02-26T14:33:50;31.52;;;13.77;;
43646;SDS011;56152;49.996;18.980;2024-02-26T14:38:53;22.23;;;10.93;;
43646;SDS011;56152;49.996;18.980;2024-02-26T14:43:55;23.98;;;12.30;;
43646;SDS011;56152;49.996;18.980;2024-02-26T14:48:59;19.17;;;10.20;;
43646;SDS011;56152;49.996;18.980;2024-02-26T14:54:00;29.55;;;12.40;;
43646;SDS011;56152;49.996;18.980;2024-02-26T14:59:03;26.20;;;13.00;;
43646;SDS011;56152;49.996;18.980;2024-02-26T15:04:06;38.95;;;18.02;;
43646;SDS011;56152;49.996;18.980;2024-02-26T15:09:09;31.92;;;15.82;;
43646;SDS011;56152;49.996;18.980;2024-02-26T15:14:10;32.90;;;17.60;;
43646;SDS011;56152;49.996;18.980;2024-02-26T15:19:14;52.33;;;23.05;;
43646;SDS011;56152;49.996;18.980;2024-02-26T15:24:16;62.65;;;27.38;;
43646;SDS011;56152;49.996;18.980;2024-02-26T15:29:18;61.05;;;27.50;;
43646;SDS011;56152;49.996;18.980;2024-02-26T15:34:22;35.28;;;16.42;;
43646;SDS011;56152;49.996;18.980;2024-02-26T15:39:24;55.22;;;25.90;;
43646;SDS011;56152;49.996;18.980;2024-02-26T15:44:25;37.22;;;16.27;;
43646;SDS011;56152;49.996;18.980;2024-02-26T15:49:29;24.63;;;14.10;;
43646;SDS011;56152;49.996;18.980;2024-02-26T15:54:31;13.50;;;7.55;;
43646;SDS011;56152;49.996;18.980;2024-02-26T15:59:33;10.63;;;5.95;;
43646;SDS011;56152;49.996;18.980;2024-02-26T16:04:37;14.15;;;7.55;;
43646;SDS011;56152;49.996;18.980;2024-02-26T16:09:39;12.40;;;8.43;;
43646;SDS011;56152;49.996;18.980;2024-02-26T16:14:42;15.20;;;9.00;;
43646;SDS011;56152;49.996;18.980;2024-02-26T16:19:49;17.25;;;9.50;;
43646;SDS011;56152;49.996;18.980;2024-02-26T16:24:52;21.75;;;12.75;;
43646;SDS011;56152;49.996;18.980;2024-02-26T16:29:56;17.52;;;10.00;;
43646;SDS011;56152;49.996;18.980;2024-02-26T16:35:02;15.18;;;9.63;;
43646;SDS011;56152;49.996;18.980;2024-02-26T16:40:06;25.15;;;11.38;;
43646;SDS011;56152;49.996;18.980;2024-02-26T16:45:09;25.42;;;13.68;;
43646;SDS011;56152;49.996;18.980;2024-02-26T16:50:14;51.13;;;26.98;;
43646;SDS011;56152;49.996;18.980;2024-02-26T16:55:16;41.55;;;22.05;;
43646;SDS011;56152;49.996;18.980;2024-02-26T17:00:18;30.42;;;16.20;;
43646;SDS011;56152;49.996;18.980;2024-02-26T17:05:24;21.30;;;12.52;;
43646;SDS011;56152;49.996;18.980;2024-02-26T17:10:27;35.53;;;19.33;;
43646;SDS011;56152;49.996;18.980;2024-02-26T17:15:29;61.88;;;35.50;;
43646;SDS011;56152;49.996;18.980;2024-02-26T17:20:32;74.10;;;41.35;;
43646;SDS011;56152;49.996;18.980;2024-02-26T17:25:35;39.45;;;24.45;;
43646;SDS011;56152;49.996;18.980;2024-02-26T17:30:39;25.27;;;15.98;;
43646;SDS011;56152;49.996;18.980;2024-02-26T17:35:42;31.80;;;17.35;;
43646;SDS011;56152;49.996;18.980;2024-02-26T17:40:45;40.33;;;22.80;;
43646;SDS011;56152;49.996;18.980;2024-02-26T17:45:46;39.00;;;22.15;;
43646;SDS011;56152;49.996;18.980;2024-02-26T17:50:50;41.70;;;23.45;;
43646;SDS011;56152;49.996;18.980;2024-02-26T17:55:55;44.03;;;24.88;;
43646;SDS011;56152;49.996;18.980;2024-02-26T18:01:06;38.78;;;22.13;;
43646;SDS011;56152;49.996;18.980;2024-02-26T18:06:12;43.80;;;23.88;;
43646;SDS011;56152;49.996;18.980;2024-02-26T18:11:15;45.92;;;25.77;;
43646;SDS011;56152;49.996;18.980;2024-02-26T18:16:18;37.08;;;21.98;;
43646;SDS011;56152;49.996;18.980;2024-02-26T18:21:22;42.75;;;24.85;;
43646;SDS011;56152;49.996;18.980;2024-02-26T18:26:25;113.15;;;66.38;;
43646;SDS011;56152;49.996;18.980;2024-02-26T18:31:28;140.35;;;80.75;;
43646;SDS011;56152;49.996;18.980;2024-02-26T18:36:32;92.22;;;49.95;;
43646;SDS011;56152;49.996;18.980;2024-02-26T18:41:36;67.95;;;38.42;;
43646;SDS011;56152;49.996;18.980;2024-02-26T18:46:42;60.65;;;34.17;;
43646;SDS011;56152;49.996;18.980;2024-02-26T18:51:46;45.13;;;25.83;;
43646;SDS011;56152;49.996;18.980;2024-02-26T18:56:49;46.80;;;27.52;;
43646;SDS011;56152;49.996;18.980;2024-02-26T19:01:51;43.80;;;25.38;;
43646;SDS011;56152;49.996;18.980;2024-02-26T19:06:56;93.57;;;45.05;;
43646;SDS011;56152;49.996;18.980;2024-02-26T19:11:58;45.85;;;28.92;;
43646;SDS011;56152;49.996;18.980;2024-02-26T19:17:00;44.80;;;27.02;;
43646;SDS011;56152;49.996;18.980;2024-02-26T19:22:04;57.78;;;33.00;;
43646;SDS011;56152;49.996;18.980;2024-02-26T19:27:08;64.35;;;37.40;;
43646;SDS011;56152;49.996;18.980;2024-02-26T19:32:10;59.35;;;35.50;;
43646;SDS011;56152;49.996;18.980;2024-02-26T19:37:18;79.57;;;47.13;;
43646;SDS011;56152;49.996;18.980;2024-02-26T19:42:19;123.97;;;69.15;;
43646;SDS011;56152;49.996;18.980;2024-02-26T19:47:25;99.20;;;54.33;;
43646;SDS011;56152;49.996;18.980;2024-02-26T19:52:31;111.13;;;58.47;;
43646;SDS011;56152;49.996;18.980;2024-02-26T19:57:35;143.73;;;76.13;;
43646;SDS011;56152;49.996;18.980;2024-02-26T20:02:36;98.13;;;52.35;;
43646;SDS011;56152;49.996;18.980;2024-02-26T20:07:40;96.20;;;52.67;;
43646;SDS011;56152;49.996;18.980;2024-02-26T20:12:42;94.95;;;50.03;;
43646;SDS011;56152;49.996;18.980;2024-02-26T20:17:44;150.55;;;67.93;;
43646;SDS011;56152;49.996;18.980;2024-02-26T20:22:47;107.88;;;54.03;;
43646;SDS011;56152;49.996;18.980;2024-02-26T20:27:49;140.70;;;66.97;;
43646;SDS011;56152;49.996;18.980;2024-02-26T20:32:51;134.73;;;73.28;;
43646;SDS011;56152;49.996;18.980;2024-02-26T20:37:54;153.88;;;75.93;;
43646;SDS011;56152;49.996;18.980;2024-02-26T20:42:59;184.90;;;87.97;;
43646;SDS011;56152;49.996;18.980;2024-02-26T20:48:02;170.93;;;79.68;;
43646;SDS011;56152;49.996;18.980;2024-02-26T20:53:05;118.38;;;66.90;;
43646;SDS011;56152;49.996;18.980;2024-02-26T20:58:07;111.30;;;62.85;;
43646;SDS011;56152;49.996;18.980;2024-02-26T21:03:09;127.95;;;66.97;;
43646;SDS011;56152;49.996;18.980;2024-02-26T21:08:13;128.73;;;62.58;;
43646;SDS011;56152;49.996;18.980;2024-02-26T21:13:15;145.38;;;76.35;;
43646;SDS011;56152;49.996;18.980;2024-02-26T21:18:19;113.80;;;60.85;;
43646;SDS011;56152;49.996;18.980;2024-02-26T21:23:23;125.40;;;66.32;;
43646;SDS011;56152;49.996;18.980;2024-02-26T21:28:25;114.72;;;59.53;;
43646;SDS011;56152;49.996;18.980;2024-02-26T21:33:27;126.82;;;65.47;;
43646;SDS011;56152;49.996;18.980;2024-02-26T21:38:36;157.02;;;79.47;;
43646;SDS011;56152;49.996;18.980;2024-02-26T21:43:38;161.55;;;77.85;;
43646;SDS011;56152;49.996;18.980;2024-02-26T21:48:40;147.32;;;73.35;;
43646;SDS011;56152;49.996;18.980;2024-02-26T21:53:44;136.55;;;63.75;;
43646;SDS011;56152;49.996;18.980;2024-02-26T21:58:46;177.60;;;65.85;;
43646;SDS011;56152;49.996;18.980;2024-02-26T22:03:49;107.15;;;51.33;;
43646;SDS011;56152;49.996;18.980;2024-02-26T22:08:54;145.57;;;66.70;;
43646;SDS011;56152;49.996;18.980;2024-02-26T22:13:56;131.02;;;62.70;;
43646;SDS011;56152;49.996;18.980;2024-02-26T22:18:59;123.32;;;61.47;;
43646;SDS011;56152;49.996;18.980;2024-02-26T22:24:03;120.32;;;63.45;;
43646;SDS011;56152;49.996;18.980;2024-02-26T22:29:06;124.28;;;62.42;;
43646;SDS011;56152;49.996;18.980;2024-02-26T22:34:14;134.05;;;67.80;;
43646;SDS011;56152;49.996;18.980;2024-02-26T22:39:20;133.93;;;65.10;;
43646;SDS011;56152;49.996;18.980;2024-02-26T22:44:22;185.25;;;86.78;;
43646;SDS011;56152;49.996;18.980;2024-02-26T22:49:25;246.70;;;114.97;;
43646;SDS011;56152;49.996;18.980;2024-02-26T22:54:37;168.88;;;77.07;;
43646;SDS011;56152;49.996;18.980;2024-02-26T22:59:40;139.02;;;63.25;;
43646;SDS011;56152;49.996;18.980;2024-02-26T23:04:42;145.07;;;65.93;;
43646;SDS011;56152;49.996;18.980;2024-02-26T23:15:04;137.60;;;65.57;;
43646;SDS011;56152;49.996;18.980;2024-02-26T23:20:07;152.88;;;76.28;;
43646;SDS011;56152;49.996;18.980;2024-02-26T23:25:11;134.10;;;69.05;;
43646;SDS011;56152;49.996;18.980;2024-02-26T23:30:14;150.32;;;75.13;;
43646;SDS011;56152;49.996;18.980;2024-02-26T23:35:18;118.90;;;67.38;;
43646;SDS011;56152;49.996;18.980;2024-02-26T23:40:25;131.25;;;66.93;;
43646;SDS011;56152;49.996;18.980;2024-02-26T23:45:33;145.18;;;74.28;;
43646;SDS011;56152;49.996;18.980;2024-02-26T23:50:37;129.45;;;65.97;;
43646;SDS011;56152;49.996;18.980;2024-02-26T23:55:42;146.90;;;72.53;;
